Time;durP1;ratioP1;P1;durP2;ratioP2;P2;SDS_P1;SDS_P2;PMS_P1;PMS_P2;Temp;Humidity;BMP_temperature;BMP_pressure;BME280_temperature;BME280_humidity;BME280_pressure;Samples;Min_cycle;Max_cycle;Signal;HPM_P1;HPM_P2
2023/01/21 00:00:07;;;;;;;32.58;18.70;;;1.20;99.90;;;;;;4865791;29;20374;-92
2023/01/21 00:02:35;;;;;;;33.47;19.15;;;1.10;99.90;;;;;;4869572;29;20097;-91
2023/01/21 00:05:01;;;;;;;32.42;19.23;;;1.10;99.90;;;;;;4878754;29;20428;-92
2023/01/21 00:07:26;;;;;;;30.10;18.25;;;1.10;99.90;;;;;;4881247;29;20104;-92
2023/01/21 00:09:52;;;;;;;29.67;18.10;;;1.10;99.90;;;;;;4881133;29;20045;-92
2023/01/21 00:12:18;;;;;;;32.47;19.15;;;1.10;99.90;;;;;;4880941;29;20048;-92
2023/01/21 00:14:43;;;;;;;31.02;18.27;;;1.10;99.90;;;;;;4880878;29;20080;-91
2023/01/21 00:17:09;;;;;;;34.50;20.25;;;1.10;99.90;;;;;;4880758;29;20552;-92
2023/01/21 00:19:35;;;;;;;32.97;18.98;;;1.10;99.90;;;;;;4880888;29;20053;-92
2023/01/21 00:22:00;;;;;;;32.03;19.67;;;1.10;99.90;;;;;;4863978;29;20045;-92
2023/01/21 00:24:26;;;;;;;31.77;19.15;;;1.10;99.90;;;;;;4880728;29;20105;-92
2023/01/21 00:26:52;;;;;;;33.60;19.40;;;1.20;99.90;;;;;;4864179;29;20108;-92
2023/01/21 00:29:18;;;;;;;32.92;19.58;;;1.10;99.90;;;;;;4880431;29;20497;-91
2023/01/21 00:31:43;;;;;;;30.55;18.48;;;1.20;99.90;;;;;;4880355;29;20048;-92
2023/01/21 00:34:10;;;;;;;31.73;19.73;;;1.20;99.90;;;;;;4864108;29;20462;-91
2023/01/21 00:36:35;;;;;;;32.80;19.63;;;1.20;99.90;;;;;;4863855;29;20113;-92
2023/01/21 00:39:01;;;;;;;31.55;19.50;;;1.20;99.90;;;;;;4864453;29;20057;-92
2023/01/21 00:41:27;;;;;;;30.60;19.05;;;1.20;99.90;;;;;;4864116;29;20490;-92
2023/01/21 00:43:52;;;;;;;36.85;21.17;;;1.20;99.90;;;;;;4864368;29;20121;-91
2023/01/21 00:46:18;;;;;;;32.80;20.27;;;1.20;99.90;;;;;;4864261;29;20423;-92
2023/01/21 00:48:44;;;;;;;34.67;20.75;;;1.20;99.90;;;;;;4863774;29;20128;-92
2023/01/21 00:51:10;;;;;;;36.35;21.13;;;1.20;99.90;;;;;;4880106;29;20504;-90
2023/01/21 00:53:38;;;;;;;34.13;20.13;;;1.20;99.90;;;;;;4863773;29;20045;-93
2023/01/21 00:56:06;;;;;;;32.05;19.92;;;1.20;99.90;;;;;;4863507;29;20055;-92
2023/01/21 00:58:33;;;;;;;31.67;20.05;;;1.20;99.90;;;;;;4880565;29;20125;-92
2023/01/21 01:01:05;;;;;;;32.38;19.00;;;1.20;99.90;;;;;;4880227;29;20107;-92
2023/01/21 01:03:32;;;;;;;35.38;21.27;;;1.20;99.90;;;;;;4864138;29;20049;-92
2023/01/21 01:06:03;;;;;;;33.25;19.48;;;1.20;99.90;;;;;;4863601;29;20041;-92
2023/01/21 01:08:29;;;;;;;33.65;20.13;;;1.20;99.90;;;;;;4862367;29;20041;-92
2023/01/21 01:10:55;;;;;;;34.33;20.02;;;1.20;99.90;;;;;;4880285;29;20037;-92
2023/01/21 01:13:21;;;;;;;34.13;20.88;;;1.20;99.90;;;;;;4879475;29;20446;-92
2023/01/21 01:15:50;;;;;;;32.15;19.98;;;1.20;99.90;;;;;;4880345;29;20131;-91
2023/01/21 01:18:16;;;;;;;31.13;20.40;;;1.20;99.90;;;;;;4879445;29;20124;-91
2023/01/21 01:20:43;;;;;;;32.15;20.95;;;1.20;99.90;;;;;;4879958;29;20080;-92
2023/01/21 01:23:08;;;;;;;36.33;20.50;;;1.20;99.90;;;;;;4876039;29;20033;-91
2023/01/21 01:25:36;;;;;;;35.55;21.27;;;1.20;99.90;;;;;;4863804;29;20053;-92
2023/01/21 01:28:03;;;;;;;35.60;21.23;;;1.20;99.90;;;;;;4879317;29;20501;-92
2023/01/21 01:30:29;;;;;;;34.90;21.25;;;1.20;99.90;;;;;;4863369;29;20053;-91
2023/01/21 01:32:54;;;;;;;31.92;20.27;;;1.20;99.90;;;;;;4863491;29;20097;-91
2023/01/21 01:35:20;;;;;;;33.15;19.75;;;1.20;99.90;;;;;;4854122;29;20049;-92
2023/01/21 01:37:46;;;;;;;35.45;21.13;;;1.30;99.90;;;;;;4845186;29;20131;-90
2023/01/21 01:40:12;;;;;;;34.55;21.65;;;1.20;99.90;;;;;;4845295;29;20061;-91
2023/01/21 01:42:37;;;;;;;33.88;20.92;;;1.20;99.90;;;;;;4844386;29;20054;-91
2023/01/21 01:45:15;;;;;;;33.28;21.33;;;1.20;99.90;;;;;;4861675;29;20045;-91
2023/01/21 01:47:46;;;;;;;31.35;20.05;;;1.20;99.90;;;;;;4860817;29;20042;-91
2023/01/21 01:50:16;;;;;;;32.85;20.70;;;1.20;99.90;;;;;;4844158;29;20060;-91
2023/01/21 01:52:43;;;;;;;33.78;21.05;;;1.10;99.90;;;;;;4862388;29;20136;-93
2023/01/21 01:55:12;;;;;;;35.40;21.58;;;1.00;99.90;;;;;;4845411;29;20054;-93
2023/01/21 01:57:40;;;;;;;34.13;20.45;;;1.00;99.90;;;;;;4845309;29;20050;-93
2023/01/21 02:00:10;;;;;;;37.13;21.50;;;1.00;99.90;;;;;;4845233;29;20037;-93
2023/01/21 02:02:38;;;;;;;33.97;20.15;;;1.00;99.90;;;;;;4844956;29;20132;-92
2023/01/21 02:05:07;;;;;;;32.92;19.23;;;1.00;99.90;;;;;;4845868;29;20076;-92
2023/01/21 02:07:38;;;;;;;33.35;20.65;;;0.90;99.90;;;;;;4861590;29;20121;-93
2023/01/21 02:10:18;;;;;;;35.88;21.10;;;0.90;99.90;;;;;;4844871;29;20050;-92
2023/01/21 02:12:43;;;;;;;34.60;21.20;;;0.80;99.90;;;;;;4835879;29;20045;-93
2023/01/21 02:15:09;;;;;;;34.58;20.55;;;0.80;99.90;;;;;;4861339;29;20105;-93
2023/01/21 02:18:11;;;;;;;34.88;21.02;;;0.80;99.90;;;;;;4861420;29;20165;-92
2023/01/21 02:20:51;;;;;;;34.83;20.77;;;0.80;99.90;;;;;;4836311;29;20060;-93
2023/01/21 02:23:22;;;;;;;36.10;21.40;;;0.70;99.90;;;;;;4859909;29;20067;-92
2023/01/21 02:25:53;;;;;;;35.08;21.58;;;0.70;99.90;;;;;;4848144;29;20075;-92
2023/01/21 02:28:28;;;;;;;35.65;20.90;;;0.70;99.90;;;;;;4841207;29;20097;-92
2023/01/21 02:31:12;;;;;;;34.90;21.25;;;0.70;99.90;;;;;;4847793;29;20076;-92
2023/01/21 02:34:20;;;;;;;34.55;21.08;;;0.70;99.90;;;;;;4848053;29;20085;-91
2023/01/21 02:37:19;;;;;;;31.88;21.08;;;0.70;99.90;;;;;;4847360;29;20057;-92
2023/01/21 02:40:12;;;;;;;35.35;20.85;;;0.60;99.90;;;;;;4863776;29;20056;-91
2023/01/21 02:42:54;;;;;;;34.50;20.65;;;0.60;99.90;;;;;;4863875;29;20048;-92
2023/01/21 02:45:41;;;;;;;32.53;19.83;;;0.60;99.90;;;;;;4863502;29;20049;-92
2023/01/21 02:48:11;;;;;;;31.52;20.02;;;0.60;99.90;;;;;;4853484;29;20081;-91
2023/01/21 02:50:57;;;;;;;31.55;19.92;;;0.50;99.90;;;;;;4854359;29;20045;-91
2023/01/21 02:53:31;;;;;;;32.53;20.35;;;0.50;99.90;;;;;;4859370;29;20100;-91
2023/01/21 02:56:11;;;;;;;31.40;19.42;;;0.50;99.90;;;;;;4859856;29;20053;-92
2023/01/21 02:58:40;;;;;;;34.05;21.05;;;0.50;99.90;;;;;;4846581;29;20053;-91
2023/01/21 03:01:47;;;;;;;36.45;21.95;;;0.50;99.90;;;;;;4847199;29;20335;-91
2023/01/21 03:04:37;;;;;;;34.88;20.50;;;0.40;99.90;;;;;;4846725;29;20058;-92
2023/01/21 03:07:31;;;;;;;35.38;21.52;;;0.40;99.90;;;;;;4847136;29;20045;-90
2023/01/21 03:10:00;;;;;;;;;;;0.40;99.90;;;;;;4826764;29;20053;-92
2023/01/21 03:12:40;;;;;;;29.83;19.10;;;0.30;99.90;;;;;;4863371;29;19924;-91
2023/01/21 03:17:56;;;;;;;29.88;19.00;;;0.30;99.90;;;;;;4847002;29;20440;-91
2023/01/21 03:20:33;;;;;;;36.95;21.40;;;0.40;99.90;;;;;;4863058;29;20053;-92
2023/01/21 03:23:04;;;;;;;37.60;22.90;;;0.30;99.90;;;;;;4846854;29;20562;-91
2023/01/21 03:25:33;;;;;;;36.13;21.42;;;0.30;99.90;;;;;;4846826;29;20042;-92
2023/01/21 03:28:02;;;;;;;33.03;20.02;;;0.30;99.90;;;;;;4846592;29;20076;-91
2023/01/21 03:30:30;;;;;;;38.00;21.75;;;0.30;99.90;;;;;;4862067;29;20122;-91
2023/01/21 03:32:57;;;;;;;34.30;21.48;;;0.30;99.90;;;;;;4863098;29;20088;-91
2023/01/21 03:35:28;;;;;;;37.03;21.50;;;0.30;99.90;;;;;;4871257;29;20052;-91
2023/01/21 03:38:01;;;;;;;37.00;22.00;;;0.30;99.90;;;;;;4864761;29;20044;-92
2023/01/21 03:40:36;;;;;;;37.40;22.50;;;0.30;99.90;;;;;;4881095;29;20053;-92
2023/01/21 03:43:03;;;;;;;37.00;21.30;;;0.30;99.90;;;;;;4881025;29;20049;-91
2023/01/21 03:45:45;;;;;;;36.05;21.38;;;0.30;99.90;;;;;;4864566;29;20067;-91
2023/01/21 03:48:31;;;;;;;38.40;21.98;;;0.30;99.90;;;;;;4864219;29;20048;-92
2023/01/21 03:51:05;;;;;;;38.45;22.30;;;0.30;99.90;;;;;;4864330;29;20143;-92
2023/01/21 03:53:31;;;;;;;42.83;23.88;;;0.30;99.90;;;;;;4856661;29;20087;-92
2023/01/21 03:55:58;;;;;;;38.25;22.23;;;0.30;99.90;;;;;;4880679;29;20505;-92
2023/01/21 03:58:24;;;;;;;39.20;23.27;;;0.30;99.90;;;;;;4864154;29;20132;-91
2023/01/21 04:00:50;;;;;;;41.60;24.15;;;0.30;99.90;;;;;;4864478;29;20052;-91
2023/01/21 04:03:16;;;;;;;42.28;24.40;;;0.30;99.90;;;;;;4864451;29;20045;-91
2023/01/21 04:05:41;;;;;;;38.47;23.48;;;0.30;99.90;;;;;;4880838;29;20127;-91
2023/01/21 04:08:07;;;;;;;40.25;22.50;;;0.30;99.90;;;;;;4864045;29;20049;-91
2023/01/21 04:10:33;;;;;;;42.95;23.60;;;0.30;99.90;;;;;;4864568;29;20140;-92
2023/01/21 04:12:58;;;;;;;42.72;23.23;;;0.30;99.90;;;;;;4864757;29;20152;-91
2023/01/21 04:15:24;;;;;;;42.42;25.00;;;0.30;99.90;;;;;;4880142;29;20048;-92
2023/01/21 04:17:50;;;;;;;43.33;24.20;;;0.40;99.90;;;;;;4880877;29;20092;-92
2023/01/21 04:20:15;;;;;;;44.80;24.67;;;0.40;99.90;;;;;;4880987;29;20037;-92
2023/01/21 04:22:41;;;;;;;37.80;22.55;;;0.40;99.90;;;;;;4864470;29;20044;-93
2023/01/21 04:25:07;;;;;;;39.25;22.50;;;0.40;99.90;;;;;;4881159;29;20201;-93
2023/01/21 04:27:32;;;;;;;40.20;24.02;;;0.40;99.90;;;;;;4864056;29;20044;-91
2023/01/21 04:29:58;;;;;;;43.10;24.67;;;0.40;99.90;;;;;;4863868;29;20067;-92
2023/01/21 04:32:24;;;;;;;40.13;23.75;;;0.40;99.90;;;;;;4880978;29;20041;-91
2023/01/21 04:34:49;;;;;;;39.50;23.98;;;0.40;99.90;;;;;;4880596;29;20150;-92
2023/01/21 04:37:15;;;;;;;41.65;24.17;;;0.40;99.90;;;;;;4880543;29;20057;-92
2023/01/21 04:39:40;;;;;;;43.35;23.80;;;0.50;99.90;;;;;;4880689;29;20105;-93
2023/01/21 04:42:06;;;;;;;39.72;23.60;;;0.50;99.90;;;;;;4880668;29;20047;-92
2023/01/21 04:44:32;;;;;;;37.38;22.38;;;0.50;99.90;;;;;;4863006;29;20040;-92
2023/01/21 04:46:57;;;;;;;42.17;24.25;;;0.50;99.90;;;;;;4863698;29;20052;-92
2023/01/21 04:49:23;;;;;;;42.42;25.27;;;0.50;99.90;;;;;;4880053;29;20454;-92
2023/01/21 04:51:48;;;;;;;41.25;23.98;;;0.50;99.90;;;;;;4879967;29;20048;-93
2023/01/21 04:54:14;;;;;;;41.47;23.40;;;0.50;99.90;;;;;;4879970;29;20049;-92
2023/01/21 04:56:40;;;;;;;42.28;24.13;;;0.50;99.90;;;;;;4864404;29;20057;-91
2023/01/21 04:59:05;;;;;;;40.03;23.33;;;0.50;99.90;;;;;;4863727;29;20053;-93
2023/01/21 05:01:31;;;;;;;38.78;23.27;;;0.50;99.90;;;;;;4863467;29;20045;-92
2023/01/21 05:03:57;;;;;;;41.58;24.52;;;0.50;99.90;;;;;;4863985;29;20041;-92
2023/01/21 05:06:22;;;;;;;39.47;22.88;;;0.50;99.90;;;;;;4879590;29;20141;-92
2023/01/21 05:08:48;;;;;;;39.45;22.92;;;0.50;99.90;;;;;;4880017;29;20033;-93
2023/01/21 05:11:17;;;;;;;36.20;22.08;;;0.50;99.90;;;;;;4863940;29;20080;-92
2023/01/21 05:13:42;;;;;;;36.13;22.08;;;0.50;99.90;;;;;;4863048;29;20052;-92
2023/01/21 05:16:08;;;;;;;35.88;21.92;;;0.50;99.90;;;;;;4863068;29;20045;-92
2023/01/21 05:18:37;;;;;;;36.90;22.67;;;0.40;99.90;;;;;;4862671;29;20104;-92
2023/01/21 05:21:04;;;;;;;40.08;23.55;;;0.40;99.90;;;;;;4862964;29;20078;-93
2023/01/21 05:23:29;;;;;;;42.65;23.33;;;0.40;99.90;;;;;;4862725;29;20065;-91
2023/01/21 05:25:55;;;;;;;36.67;22.55;;;0.40;99.90;;;;;;4879272;29;20044;-92
2023/01/21 05:28:21;;;;;;;38.10;22.92;;;0.40;99.90;;;;;;4879349;29;20053;-91
2023/01/21 05:30:46;;;;;;;33.45;21.08;;;0.50;99.90;;;;;;4863072;29;20041;-92
2023/01/21 05:33:12;;;;;;;36.70;22.45;;;0.50;99.90;;;;;;4879872;29;20061;-91
2023/01/21 05:35:38;;;;;;;37.00;22.60;;;0.50;99.90;;;;;;4879457;29;20092;-93
2023/01/21 05:38:04;;;;;;;34.38;21.63;;;0.50;99.90;;;;;;4863395;29;20037;-92
2023/01/21 05:40:29;;;;;;;34.35;20.83;;;0.50;99.90;;;;;;4878808;29;20041;-93
2023/01/21 05:42:55;;;;;;;40.90;23.05;;;0.50;99.90;;;;;;4863715;29;20047;-92
2023/01/21 05:45:21;;;;;;;34.35;21.08;;;0.50;99.90;;;;;;4879641;29;20044;-92
2023/01/21 05:47:46;;;;;;;36.97;22.45;;;0.50;99.90;;;;;;4862920;29;20539;-92
2023/01/21 05:50:12;;;;;;;37.03;22.25;;;0.50;99.90;;;;;;4863053;29;20084;-92
2023/01/21 05:52:38;;;;;;;33.33;20.67;;;0.50;99.90;;;;;;4862151;29;20049;-92
2023/01/21 05:55:04;;;;;;;32.03;20.42;;;0.50;99.90;;;;;;4866440;29;20045;-93
2023/01/21 05:57:31;;;;;;;39.35;21.88;;;0.50;99.90;;;;;;4865931;29;20037;-93
2023/01/21 05:59:57;;;;;;;34.58;20.98;;;0.50;99.90;;;;;;4866701;29;20082;-92
2023/01/21 06:02:23;;;;;;;35.08;21.63;;;0.50;99.90;;;;;;4866634;29;20482;-91
2023/01/21 06:04:48;;;;;;;33.65;20.60;;;0.50;99.90;;;;;;4869803;29;20176;-92
2023/01/21 06:07:14;;;;;;;35.63;21.85;;;0.50;99.90;;;;;;4884092;29;20459;-93
2023/01/21 06:09:40;;;;;;;34.72;21.30;;;0.50;99.90;;;;;;4866298;29;20045;-94
2023/01/21 06:12:05;;;;;;;36.47;21.00;;;0.50;99.90;;;;;;4866460;29;20137;-93
2023/01/21 06:14:31;;;;;;;33.95;21.27;;;0.60;99.90;;;;;;4866138;29;20149;-93
2023/01/21 06:16:57;;;;;;;35.97;21.98;;;0.50;99.90;;;;;;4868224;29;20133;-93
2023/01/21 06:19:22;;;;;;;37.08;21.90;;;0.50;99.90;;;;;;4866647;29;20048;-90
2023/01/21 06:25:22;;;;;;;37.38;21.58;;;0.50;99.90;;;;;;4973568;23;20528;-93
2023/01/21 06:32:03;;;;;;;36.70;21.58;;;0.60;99.90;;;;;;4813480;29;20499;-92
2023/01/21 06:34:32;;;;;;;36.55;20.98;;;0.50;99.90;;;;;;4857131;29;20085;-93
2023/01/21 06:36:58;;;;;;;34.67;20.77;;;0.60;99.90;;;;;;4851078;29;20080;-93
2023/01/21 06:39:24;;;;;;;38.20;21.85;;;0.60;99.90;;;;;;4853243;29;20125;-93
2023/01/21 06:41:49;;;;;;;37.55;21.10;;;0.60;99.90;;;;;;4845005;29;20132;-94
2023/01/21 06:44:16;;;;;;;38.72;22.15;;;0.60;99.90;;;;;;4881254;29;20045;-94
2023/01/21 06:46:42;;;;;;;38.83;22.35;;;0.60;99.90;;;;;;4861023;29;20113;-95
2023/01/21 06:49:07;;;;;;;36.92;21.73;;;0.70;99.90;;;;;;4862864;29;20079;-95
2023/01/21 06:51:33;;;;;;;40.83;22.67;;;0.70;99.90;;;;;;4858133;29;20075;-95
2023/01/21 06:53:58;;;;;;;36.92;21.35;;;0.60;99.90;;;;;;4868940;29;20497;-94
2023/01/21 06:56:24;;;;;;;39.33;21.42;;;0.70;99.90;;;;;;4847301;29;20069;-95
2023/01/21 06:58:53;;;;;;;38.45;22.67;;;0.70;99.90;;;;;;4864329;29;20046;-95
2023/01/21 07:01:18;;;;;;;36.45;21.90;;;0.70;99.90;;;;;;4851009;29;20049;-93
2023/01/21 07:03:44;;;;;;;37.08;21.40;;;0.70;99.90;;;;;;4864074;29;20050;-94
2023/01/21 07:06:10;;;;;;;36.25;21.42;;;0.70;99.90;;;;;;4842645;29;20037;-91
2023/01/21 07:08:35;;;;;;;38.42;21.98;;;0.70;99.90;;;;;;4851920;29;20188;-93
2023/01/21 07:11:01;;;;;;;36.10;20.80;;;0.70;99.90;;;;;;4868583;29;20049;-93
2023/01/21 07:13:30;;;;;;;37.13;21.55;;;0.70;99.90;;;;;;4868447;29;20060;-94
2023/01/21 07:16:01;;;;;;;36.40;20.85;;;0.70;99.90;;;;;;4877677;29;20108;-93
2023/01/21 07:18:27;;;;;;;37.58;21.40;;;0.70;99.90;;;;;;4866192;29;20046;-93
2023/01/21 07:20:53;;;;;;;35.22;20.67;;;0.70;99.90;;;;;;4854941;29;20037;-93
2023/01/21 07:23:18;;;;;;;36.85;21.80;;;0.70;99.90;;;;;;4853886;29;20431;-92
2023/01/21 07:25:44;;;;;;;38.75;21.27;;;0.70;99.90;;;;;;4876130;29;20060;-93
2023/01/21 07:28:13;;;;;;;39.53;22.40;;;0.70;99.90;;;;;;4855100;29;20042;-94
2023/01/21 07:30:41;;;;;;;37.97;21.75;;;0.80;99.90;;;;;;4857518;29;20135;-92
2023/01/21 07:33:08;;;;;;;35.88;21.33;;;0.70;99.90;;;;;;4854052;29;20048;-94
2023/01/21 07:35:34;;;;;;;40.17;22.20;;;0.80;99.90;;;;;;4857553;29;20063;-94
2023/01/21 07:38:00;;;;;;;36.70;22.27;;;0.70;99.90;;;;;;4851068;29;20135;-92
2023/01/21 07:40:26;;;;;;;36.92;21.33;;;0.80;99.90;;;;;;4868198;29;20132;-95
2023/01/21 07:42:53;;;;;;;37.35;22.55;;;0.80;99.90;;;;;;4849110;29;20588;-96
2023/01/21 07:45:20;;;;;;;37.85;22.65;;;0.80;99.90;;;;;;4864756;29;20506;-96
2023/01/21 07:47:46;;;;;;;42.42;23.48;;;0.80;99.90;;;;;;4864109;29;21316;-96
2023/01/21 07:50:11;;;;;;;38.70;23.25;;;0.80;99.90;;;;;;4847489;29;20072;-94
2023/01/21 07:52:37;;;;;;;38.47;21.60;;;0.80;99.90;;;;;;4846630;29;20042;-90
2023/01/21 07:55:03;;;;;;;37.20;22.42;;;0.80;99.90;;;;;;4862779;29;20049;-93
2023/01/21 07:57:29;;;;;;;32.97;21.20;;;0.80;99.90;;;;;;4862645;29;20045;-95
2023/01/21 07:59:54;;;;;;;36.35;21.48;;;0.80;99.90;;;;;;4845015;29;20379;-93
2023/01/21 08:02:20;;;;;;;33.90;21.15;;;0.70;99.90;;;;;;4863015;29;20045;-92
2023/01/21 08:04:49;;;;;;;35.60;21.33;;;0.80;99.90;;;;;;4856856;29;20041;-90
2023/01/21 08:07:14;;;;;;;36.25;22.30;;;0.80;99.90;;;;;;4846008;29;20064;-94
2023/01/21 08:09:40;;;;;;;37.08;21.20;;;0.80;99.90;;;;;;4846322;29;20502;-92
2023/01/21 08:12:07;;;;;;;37.38;22.13;;;0.80;99.90;;;;;;4862805;29;20044;-93
2023/01/21 08:14:33;;;;;;;34.03;21.17;;;0.80;99.90;;;;;;4846948;29;20106;-94
2023/01/21 08:16:59;;;;;;;38.95;23.25;;;0.80;99.90;;;;;;4862736;29;20498;-95
2023/01/21 08:19:25;;;;;;;36.50;22.63;;;0.80;99.90;;;;;;4845504;29;20085;-95
2023/01/21 08:21:51;;;;;;;36.60;22.65;;;0.90;99.90;;;;;;4846822;29;20049;-94
2023/01/21 08:24:16;;;;;;;36.25;22.08;;;0.80;99.90;;;;;;4858932;29;20066;-89
2023/01/21 08:26:42;;;;;;;36.60;21.48;;;0.90;99.90;;;;;;4858676;29;20061;-88
2023/01/21 08:29:08;;;;;;;32.67;20.73;;;0.80;99.90;;;;;;4837280;29;20101;-92
2023/01/21 08:31:33;;;;;;;34.00;20.45;;;0.80;99.90;;;;;;4842390;29;20318;-94
2023/01/21 08:33:59;;;;;;;37.92;22.45;;;0.80;99.90;;;;;;4845421;29;20073;-87
2023/01/21 08:36:25;;;;;;;36.42;22.75;;;0.80;99.90;;;;;;4845672;29;20057;-94
2023/01/21 08:38:57;;;;;;;36.35;21.70;;;0.70;99.90;;;;;;4861797;29;20040;-92
2023/01/21 08:41:23;;;;;;;34.40;22.35;;;0.70;99.90;;;;;;4835940;29;20057;-91
2023/01/21 08:43:49;;;;;;;34.25;22.13;;;0.70;99.90;;;;;;4849918;29;20042;-90
2023/01/21 08:46:14;;;;;;;40.20;23.73;;;0.70;99.90;;;;;;4843866;29;20049;-90
2023/01/21 08:48:40;;;;;;;36.10;21.88;;;0.70;99.90;;;;;;4844898;29;20198;-91
2023/01/21 08:51:05;;;;;;;36.95;22.00;;;0.70;99.90;;;;;;4860370;29;20507;-90
2023/01/21 08:53:31;;;;;;;37.00;21.80;;;0.60;99.90;;;;;;4861037;29;20045;-90
2023/01/21 08:55:59;;;;;;;37.78;23.33;;;0.60;99.90;;;;;;4844322;29;20492;-90
2023/01/21 08:58:25;;;;;;;36.00;21.85;;;0.70;99.90;;;;;;4859017;29;20120;-92
2023/01/21 09:00:50;;;;;;;34.95;21.80;;;0.60;99.90;;;;;;4845268;29;20522;-90
2023/01/21 09:03:18;;;;;;;34.65;21.42;;;0.60;99.90;;;;;;4861155;29;20037;-90
2023/01/21 09:05:44;;;;;;;36.38;22.23;;;0.60;99.90;;;;;;4844293;29;20101;-90
2023/01/21 09:08:10;;;;;;;36.85;21.98;;;0.60;99.90;;;;;;4861189;29;20045;-90
2023/01/21 09:13:19;;;;;;;33.50;20.67;;;0.60;99.90;;;;;;4861164;29;20045;-91
2023/01/21 09:15:45;;;;;;;40.65;23.85;;;0.60;99.90;;;;;;4861079;29;20387;-91
2023/01/21 09:18:11;;;;;;;40.72;23.73;;;0.60;99.90;;;;;;4843633;29;20045;-90
2023/01/21 09:20:38;;;;;;;38.28;22.50;;;0.60;99.90;;;;;;4845095;29;20046;-91
2023/01/21 09:23:22;;;;;;;38.47;22.65;;;0.60;99.90;;;;;;4844297;29;20049;-91
2023/01/21 09:25:50;;;;;;;34.95;21.20;;;0.60;99.90;;;;;;4843910;29;20056;-91
2023/01/21 09:28:16;;;;;;;35.92;21.98;;;0.60;99.90;;;;;;4861698;29;20037;-90
2023/01/21 09:30:42;;;;;;;39.17;22.17;;;0.60;99.90;;;;;;4848629;29;20098;-90
2023/01/21 09:33:08;;;;;;;41.30;23.73;;;0.70;99.90;;;;;;4847445;29;20077;-90
2023/01/21 09:35:33;;;;;;;38.60;23.13;;;0.70;99.90;;;;;;4848028;29;20052;-90
2023/01/21 09:37:59;;;;;;;39.53;23.42;;;0.60;99.90;;;;;;4864825;29;20049;-90
2023/01/21 09:40:27;;;;;;;37.30;22.98;;;0.70;99.90;;;;;;4863638;29;20049;-90
2023/01/21 09:42:53;;;;;;;37.40;22.20;;;0.60;99.90;;;;;;4864742;29;20046;-90
2023/01/21 09:45:20;;;;;;;38.17;23.17;;;0.70;99.90;;;;;;4864326;29;20049;-90
2023/01/21 09:47:48;;;;;;;38.85;23.73;;;0.70;99.90;;;;;;4847240;29;20529;-89
2023/01/21 09:50:18;;;;;;;41.13;23.65;;;0.70;99.90;;;;;;4864422;29;20077;-90
2023/01/21 09:52:47;;;;;;;40.05;23.92;;;0.70;99.90;;;;;;4847299;29;20056;-89
2023/01/21 09:55:19;;;;;;;37.10;23.27;;;0.70;99.90;;;;;;4847600;29;20089;-90
2023/01/21 09:57:45;;;;;;;42.53;25.05;;;0.80;99.90;;;;;;4864297;29;20053;-89
2023/01/21 10:00:35;;;;;;;37.20;21.77;;;0.80;99.90;;;;;;4846697;29;20046;-89
2023/01/21 10:03:40;;;;;;;41.80;24.40;;;0.80;99.90;;;;;;4847925;29;20056;-90
2023/01/21 10:06:34;;;;;;;41.40;24.25;;;0.80;99.90;;;;;;4864241;29;20076;-89
2023/01/21 10:09:28;;;;;;;38.53;22.52;;;0.90;99.90;;;;;;4863361;29;20042;-90
2023/01/21 10:12:30;;;;;;;40.88;23.73;;;0.90;99.90;;;;;;4847408;29;20064;-90
2023/01/21 10:15:11;;;;;;;38.45;22.27;;;1.00;99.90;;;;;;4846629;29;20106;-89
2023/01/21 10:18:17;;;;;;;38.53;23.83;;;1.00;99.90;;;;;;4848233;29;20148;-89
2023/01/21 10:20:47;;;;;;;38.50;22.35;;;1.10;99.90;;;;;;4845086;29;20148;-91
2023/01/21 10:23:42;;;;;;;42.60;24.23;;;1.10;99.90;;;;;;4846587;29;20072;-92
2023/01/21 10:26:22;;;;;;;36.38;21.95;;;1.10;99.90;;;;;;4841222;29;20503;-94
2023/01/21 11:04:22;;;;;;;40.95;23.98;;;1.60;99.90;;;;;;4776912;30;20059;-93
2023/01/21 11:07:05;;;;;;;39.00;24.38;;;1.70;99.90;;;;;;4782964;30;20052;-92
2023/01/21 11:12:47;;;;;;;41.92;25.25;;;1.80;99.90;;;;;;4788990;29;20059;-94
2023/01/21 11:15:46;;;;;;;41.47;24.38;;;1.90;99.90;;;;;;4776038;29;20063;-94
2023/01/21 11:18:58;;;;;;;45.28;25.83;;;1.90;99.90;;;;;;4720953;30;20152;-94
2023/01/21 11:22:12;;;;;;;39.67;23.83;;;2.00;99.90;;;;;;4751051;30;20552;-93
2023/01/21 11:24:50;;;;;;;38.97;24.00;;;2.00;99.90;;;;;;4772909;30;20428;-92
2023/01/21 11:27:37;;;;;;;44.88;25.00;;;2.10;99.90;;;;;;4763287;30;20059;-92
2023/01/21 11:30:05;;;;;;;38.50;23.60;;;2.20;99.90;;;;;;4816717;29;20050;-93
2023/01/21 11:32:31;;;;;;;36.35;23.05;;;2.20;99.90;;;;;;4861854;29;20045;-94
2023/01/21 11:35:19;;;;;;;39.88;22.73;;;2.20;99.90;;;;;;4844456;29;20406;-92
2023/01/21 11:38:28;;;;;;;35.50;22.50;;;2.30;99.90;;;;;;4847566;29;20037;-94
2023/01/21 11:41:23;;;;;;;35.60;22.65;;;2.30;99.90;;;;;;4863118;29;20514;-93
2023/01/21 11:43:54;;;;;;;38.20;22.58;;;2.40;99.90;;;;;;4869270;29;20065;-93
2023/01/21 11:46:40;;;;;;;37.00;23.48;;;2.50;99.90;;;;;;4860894;29;20050;-93
2023/01/21 11:59:52;;;;;;;33.95;21.98;;;2.70;99.90;;;;;;4983361;23;20052;-91
2023/01/21 12:02:54;;;;;;;33.58;21.08;;;2.80;99.90;;;;;;4881453;29;20045;-90
2023/01/21 12:09:46;;;;;;;;;;;;;;;;;;;;;
2023/01/21 12:27:07;;;;;;;34.47;22.37;;;3.10;99.90;;;;;;4825705;29;20062;-91
2023/01/21 12:34:11;;;;;;;27.80;18.83;;;3.20;99.90;;;;;;4824106;29;20563;-92
2023/01/21 12:37:15;;;;;;;31.75;20.75;;;3.20;99.90;;;;;;4777031;29;20069;-91
2023/01/21 12:43:27;;;;;;;;;;;;;;;;;;;;;
2023/01/21 12:50:31;;;;;;;26.67;18.05;;;3.40;99.90;;;;;;4860829;29;20053;-92
2023/01/21 12:53:37;;;;;;;24.48;16.17;;;3.50;99.90;;;;;;4863850;29;20052;-92
2023/01/21 13:00:20;;;;;;;20.65;13.88;;;3.50;99.90;;;;;;4880560;29;20450;-93
2023/01/21 13:03:26;;;;;;;;;;;;;;;;;;;;;
2023/01/21 13:14:41;;;;;;;15.93;10.23;;;3.60;99.90;;;;;;4788492;29;20107;-93
2023/01/21 13:17:25;;;;;;;21.33;13.10;;;3.60;99.90;;;;;;4870816;29;20057;-91
2023/01/21 13:19:58;;;;;;;18.65;11.77;;;3.70;99.90;;;;;;4864308;29;20041;-94
2023/01/21 13:23:34;;;;;;;;;;;;;;;;;;;;;
2023/01/21 13:27:02;;;;;;;14.13;8.82;;;3.70;99.90;;;;;;4887946;29;20120;-96
2023/01/21 13:29:52;;;;;;;12.80;9.02;;;3.70;99.90;;;;;;4863040;29;20045;-89
2023/01/21 13:32:59;;;;;;;12.38;8.35;;;3.70;99.90;;;;;;4863577;29;20041;-91
2023/01/21 13:38:34;;;;;;;13.13;8.75;;;3.80;99.90;;;;;;4862535;29;20056;-92
2023/01/21 13:41:03;;;;;;;14.20;9.55;;;3.80;99.90;;;;;;4865343;29;20561;-91
2023/01/21 13:43:59;;;;;;;13.25;8.55;;;3.80;99.90;;;;;;4863699;29;20088;-92
2023/01/21 13:46:56;;;;;;;11.65;7.93;;;3.80;99.90;;;;;;4879653;29;20041;-92
2023/01/21 13:49:58;;;;;;;11.93;7.90;;;3.80;99.90;;;;;;4879928;29;20073;-93
2023/01/21 13:53:01;;;;;;;13.07;8.55;;;3.80;99.90;;;;;;4879005;29;20189;-92
2023/01/21 13:55:46;;;;;;;27.67;15.57;;;3.90;99.90;;;;;;4863060;29;20502;-92
2023/01/21 13:58:33;;;;;;;14.25;9.00;;;3.90;99.90;;;;;;4863125;29;20044;-92
2023/01/21 14:01:22;;;;;;;20.83;12.30;;;3.90;99.90;;;;;;4878989;29;20462;-93
2023/01/21 14:04:25;;;;;;;13.43;8.15;;;3.90;99.90;;;;;;4880171;29;20041;-92
2023/01/21 14:07:06;;;;;;;13.60;8.73;;;3.90;99.90;;;;;;4863014;29;20393;-92
2023/01/21 14:09:39;;;;;;;13.07;8.07;;;3.90;99.90;;;;;;4880031;29;20045;-92
2023/01/21 14:12:18;;;;;;;12.98;8.18;;;3.90;99.90;;;;;;4863785;29;20045;-91
2023/01/21 14:15:11;;;;;;;12.00;7.30;;;3.90;99.90;;;;;;4864237;29;20049;-93
2023/01/21 14:18:33;;;;;;;10.52;6.55;;;3.90;99.90;;;;;;4883619;29;20045;-92
2023/01/21 14:28:05;;;;;;;10.13;6.82;;;3.90;99.90;;;;;;4863307;29;20116;-93
2023/01/21 14:31:13;;;;;;;10.70;6.97;;;3.90;99.90;;;;;;4865848;29;20063;-93
2023/01/21 14:33:47;;;;;;;10.52;6.57;;;3.90;99.90;;;;;;4828697;29;20042;-92
2023/01/21 14:36:47;;;;;;;8.77;5.05;;;3.90;99.90;;;;;;4875697;29;20065;-93
2023/01/21 14:39:34;;;;;;;10.00;6.80;;;3.90;99.90;;;;;;4883089;29;20049;-93
2023/01/21 14:42:11;;;;;;;9.25;6.00;;;3.90;99.90;;;;;;4882663;29;20053;-93
2023/01/21 14:44:46;;;;;;;9.70;6.40;;;4.00;99.90;;;;;;4883233;29;20037;-92
2023/01/21 14:47:38;;;;;;;10.98;6.88;;;3.90;99.90;;;;;;4866394;29;20061;-94
2023/01/21 14:50:12;;;;;;;8.00;5.35;;;3.90;99.90;;;;;;4865853;29;20424;-93
2023/01/21 14:52:50;;;;;;;9.80;6.55;;;3.90;99.90;;;;;;4866607;29;20063;-93
2023/01/21 14:55:28;;;;;;;10.18;6.95;;;3.90;99.90;;;;;;4882207;29;20048;-93
2023/01/21 14:58:24;;;;;;;11.30;7.25;;;3.90;99.90;;;;;;4883006;29;20084;-93
2023/01/21 15:00:50;;;;;;;10.25;6.97;;;3.90;99.90;;;;;;4866475;29;20056;-94
2023/01/21 15:03:30;;;;;;;9.77;6.72;;;3.90;99.90;;;;;;4882467;29;20055;-93
2023/01/21 15:06:11;;;;;;;;;;;;;;;;;;;;;
2023/01/21 15:08:52;;;;;;;9.60;6.40;;;3.90;99.90;;;;;;4862457;29;20056;-94